Time;durP1;ratioP1;P1;durP2;ratioP2;P2;SDS_P1;SDS_P2;PMS_P1;PMS_P2;Temp;Humidity;BMP_temperature;BMP_pressure;BME280_temperature;BME280_humidity;BME280_pressure;Samples;Min_cycle;Max_cycle;Signal;HPM_P1;HPM_P2
2023/10/13 00:02:13;;;;;;;8.80;6.80;;;;;;;;;;4996292;28;20050;-86
2023/10/13 00:04:42;;;;;;;10.80;6.50;;;;;;;;;;5000443;28;20109;-85
2023/10/13 00:07:10;;;;;;;10.75;6.95;;;;;;;;;;4999900;28;20175;-86
2023/10/13 00:09:38;;;;;;;8.80;6.10;;;;;;;;;;4976441;28;20050;-86
2023/10/13 00:12:24;;;;;;;7.63;6.75;;;;;;;;;;4983393;28;20049;-86
2023/10/13 00:14:51;;;;;;;13.80;6.45;;;;;;;;;;4978525;28;20053;-86
2023/10/13 00:17:24;;;;;;;9.63;6.57;;;;;;;;;;4984665;28;20046;-86
2023/10/13 00:19:53;;;;;;;9.57;6.53;;;;;;;;;;5002938;28;20085;-85
2023/10/13 00:22:22;;;;;;;10.48;6.90;;;;;;;;;;4986771;28;20054;-85
2023/10/13 00:24:51;;;;;;;10.25;6.95;;;;;;;;;;5004429;28;20058;-84
2023/10/13 00:27:40;;;;;;;10.07;7.57;;;;;;;;;;5015522;28;20054;-83
2023/10/13 00:32:50;;;;;;;10.10;7.65;;;;;;;;;;4989770;28;20058;-85
2023/10/13 00:35:35;;;;;;;13.60;7.95;;;;;;;;;;4979470;28;20061;-86
2023/10/13 00:38:12;;;;;;;10.68;7.82;;;;;;;;;;4979150;28;20050;-85
2023/10/13 00:40:41;;;;;;;10.48;7.78;;;;;;;;;;4971300;28;20054;-85
2023/10/13 00:45:54;;;;;;;12.68;8.20;;;;;;;;;;4989268;28;20051;-85
2023/10/13 00:48:32;;;;;;;12.27;8.18;;;;;;;;;;4978760;28;20046;-84
2023/10/13 00:51:06;;;;;;;12.85;8.93;;;;;;;;;;4975723;28;20461;-83
2023/10/13 00:53:40;;;;;;;10.27;8.32;;;;;;;;;;4995712;28;20126;-86
2023/10/13 00:56:09;;;;;;;14.50;8.40;;;;;;;;;;4977545;28;20105;-85
2023/10/13 00:58:39;;;;;;;16.67;8.35;;;;;;;;;;4978174;28;20050;-84
2023/10/13 01:01:17;;;;;;;11.55;7.82;;;;;;;;;;4978833;28;20424;-85
2023/10/13 01:03:55;;;;;;;8.23;6.85;;;;;;;;;;4978333;28;20389;-84
2023/10/13 01:06:25;;;;;;;12.38;7.85;;;;;;;;;;4978182;28;20591;-83
2023/10/13 01:09:12;;;;;;;11.73;7.95;;;;;;;;;;4985722;28;20061;-84
2023/10/13 01:11:44;;;;;;;14.10;7.60;;;;;;;;;;5007283;28;20055;-85
2023/10/13 01:14:12;;;;;;;8.18;6.50;;;;;;;;;;5010398;28;20081;-85
2023/10/13 01:16:40;;;;;;;12.70;7.30;;;;;;;;;;4990749;28;20081;-85
2023/10/13 01:19:07;;;;;;;10.07;6.93;;;;;;;;;;5003384;28;20129;-85
2023/10/13 01:21:34;;;;;;;11.48;6.90;;;;;;;;;;4995143;28;20412;-85
2023/10/13 01:24:07;;;;;;;9.88;6.50;;;;;;;;;;4994134;28;20404;-85
2023/10/13 01:26:38;;;;;;;10.25;7.13;;;;;;;;;;4994010;28;20046;-85
2023/10/13 01:29:13;;;;;;;7.03;6.15;;;;;;;;;;4993722;28;20054;-85
2023/10/13 01:31:47;;;;;;;11.13;6.82;;;;;;;;;;4975263;28;20058;-86
2023/10/13 01:34:22;;;;;;;9.10;6.80;;;;;;;;;;5007273;28;20050;-85
2023/10/13 01:36:53;;;;;;;9.50;6.75;;;;;;;;;;4995681;28;20086;-86
2023/10/13 01:39:28;;;;;;;9.18;6.57;;;;;;;;;;4995383;28;20550;-86
2023/10/13 01:41:59;;;;;;;14.30;6.07;;;;;;;;;;4994505;28;20056;-86
2023/10/13 01:44:30;;;;;;;12.55;6.78;;;;;;;;;;4994135;28;20046;-86
2023/10/13 01:47:07;;;;;;;7.07;5.55;;;;;;;;;;4994709;28;20046;-86
2023/10/13 01:49:46;;;;;;;7.82;6.00;;;;;;;;;;4994613;28;20057;-86
2023/10/13 01:52:17;;;;;;;9.63;6.03;;;;;;;;;;4994646;28;20514;-86
2023/10/13 01:54:46;;;;;;;10.32;5.70;;;;;;;;;;4994204;28;20393;-87
2023/10/13 01:57:14;;;;;;;8.38;5.65;;;;;;;;;;4988202;28;20121;-86
2023/10/13 01:59:44;;;;;;;9.75;5.72;;;;;;;;;;4996173;28;20100;-86
2023/10/13 02:02:12;;;;;;;12.00;6.07;;;;;;;;;;4991251;28;20050;-86
2023/10/13 02:05:00;;;;;;;7.35;6.28;;;;;;;;;;4994860;28;20118;-86
2023/10/13 02:07:34;;;;;;;10.98;6.03;;;;;;;;;;4994737;28;20120;-86
2023/10/13 02:10:05;;;;;;;7.65;6.35;;;;;;;;;;4978645;28;20056;-86
2023/10/13 02:12:44;;;;;;;6.65;5.75;;;;;;;;;;4977967;28;20498;-86
2023/10/13 02:15:21;;;;;;;10.30;5.95;;;;;;;;;;4995971;28;20057;-85
2023/10/13 02:17:51;;;;;;;7.22;5.53;;;;;;;;;;4979114;28;20097;-86
2023/10/13 02:20:22;;;;;;;9.75;6.18;;;;;;;;;;4978680;28;20093;-86
2023/10/13 02:22:50;;;;;;;11.65;7.03;;;;;;;;;;4974884;28;20531;-86
2023/10/13 02:25:35;;;;;;;7.97;6.50;;;;;;;;;;4983999;28;20432;-86
2023/10/13 02:28:07;;;;;;;10.45;6.85;;;;;;;;;;4979111;28;20050;-86
2023/10/13 02:30:39;;;;;;;7.88;5.60;;;;;;;;;;4979214;28;20057;-85
2023/10/13 02:33:06;;;;;;;8.32;6.18;;;;;;;;;;4978806;28;20101;-86
2023/10/13 02:35:35;;;;;;;9.27;5.38;;;;;;;;;;4979459;28;20056;-85
2023/10/13 02:38:10;;;;;;;8.48;5.75;;;;;;;;;;4979926;28;20459;-85
2023/10/13 02:40:38;;;;;;;11.85;6.03;;;;;;;;;;4972094;28;20452;-86
2023/10/13 02:43:05;;;;;;;8.68;5.32;;;;;;;;;;4979940;28;20050;-86
2023/10/13 02:45:36;;;;;;;6.38;5.47;;;;;;;;;;4979544;28;20481;-86
2023/10/13 02:48:13;;;;;;;11.15;5.85;;;;;;;;;;4979905;28;20050;-86
2023/10/13 02:50:45;;;;;;;10.23;5.93;;;;;;;;;;4972818;28;20125;-86
2023/10/13 02:53:13;;;;;;;8.13;5.45;;;;;;;;;;4980325;28;20043;-86
2023/10/13 02:55:53;;;;;;;10.85;6.05;;;;;;;;;;4979664;28;20053;-86
2023/10/13 02:58:20;;;;;;;5.80;5.22;;;;;;;;;;4981120;28;20054;-86
2023/10/13 03:00:48;;;;;;;12.65;5.60;;;;;;;;;;4998977;28;20057;-86
2023/10/13 03:03:18;;;;;;;6.75;5.35;;;;;;;;;;4978491;28;20050;-86
2023/10/13 03:05:46;;;;;;;9.10;5.45;;;;;;;;;;4977994;28;20047;-86
2023/10/13 03:08:25;;;;;;;8.73;5.57;;;;;;;;;;4992019;28;20050;-86
2023/10/13 03:10:54;;;;;;;6.72;4.88;;;;;;;;;;5002583;28;20500;-86
2023/10/13 03:13:21;;;;;;;8.50;5.25;;;;;;;;;;5001153;28;20062;-86
2023/10/13 03:15:49;;;;;;;9.50;5.35;;;;;;;;;;5006567;28;20057;-86
2023/10/13 03:18:18;;;;;;;9.10;5.53;;;;;;;;;;5019674;28;20053;-86
2023/10/13 03:20:50;;;;;;;11.02;5.10;;;;;;;;;;5015344;28;20054;-86
2023/10/13 03:23:17;;;;;;;6.30;4.72;;;;;;;;;;4996459;28;20054;-85
2023/10/13 03:25:49;;;;;;;5.97;4.43;;;;;;;;;;4996173;28;20047;-86
2023/10/13 03:28:20;;;;;;;5.47;4.25;;;;;;;;;;4993412;28;20497;-85
2023/10/13 03:30:52;;;;;;;5.32;4.40;;;;;;;;;;4996126;28;20054;-84
2023/10/13 03:33:26;;;;;;;5.35;4.38;;;;;;;;;;4996911;28;20502;-86
2023/10/13 03:35:54;;;;;;;6.72;4.57;;;;;;;;;;4995824;28;20046;-85
2023/10/13 03:38:26;;;;;;;6.70;4.60;;;;;;;;;;4994075;28;20051;-85
2023/10/13 03:41:07;;;;;;;6.18;4.25;;;;;;;;;;4997103;28;20042;-85
2023/10/13 03:43:45;;;;;;;5.65;4.45;;;;;;;;;;4995662;28;20511;-85
2023/10/13 03:46:13;;;;;;;6.30;4.43;;;;;;;;;;4995803;28;20058;-85
2023/10/13 03:48:51;;;;;;;5.28;4.30;;;;;;;;;;4997345;28;20061;-86
2023/10/13 03:51:19;;;;;;;6.68;4.90;;;;;;;;;;4995986;28;20459;-85
2023/10/13 03:53:52;;;;;;;6.22;4.80;;;;;;;;;;4995929;28;20120;-85
2023/10/13 03:56:40;;;;;;;5.63;5.05;;;;;;;;;;4995442;28;20054;-85
2023/10/13 03:59:18;;;;;;;7.28;4.90;;;;;;;;;;4995630;28;20073;-85
2023/10/13 04:01:47;;;;;;;9.25;5.93;;;;;;;;;;4995488;28;20050;-83
2023/10/13 04:04:29;;;;;;;9.90;5.50;;;;;;;;;;4995208;28;20070;-85
2023/10/13 04:07:41;;;;;;;8.88;5.43;;;;;;;;;;4995610;28;20057;-85
2023/10/13 04:12:26;;;;;;;6.55;4.90;;;;;;;;;;4996219;28;20077;-86
2023/10/13 04:17:40;;;;;;;7.18;5.22;;;;;;;;;;4996103;28;20069;-84
2023/10/13 04:25:35;;;;;;;8.43;4.90;;;;;;;;;;4997215;28;20054;-86
2023/10/13 04:30:58;;;;;;;8.65;5.05;;;;;;;;;;4998028;28;20546;-86
2023/10/13 04:33:35;;;;;;;8.35;5.35;;;;;;;;;;4996761;28;20065;-85
2023/10/13 04:46:54;;;;;;;5.85;4.90;;;;;;;;;;4997336;28;20050;-86
2023/10/13 04:49:29;;;;;;;7.43;4.68;;;;;;;;;;4996063;28;20562;-86
2023/10/13 04:52:12;;;;;;;7.40;5.10;;;;;;;;;;4996091;28;20053;-87
2023/10/13 05:44:33;;;;;;;24.83;15.55;;;;;;;;;;5000018;28;20277;-88
2023/10/13 05:47:46;;;;;;;26.33;14.73;;;;;;;;;;4981298;28;20487;-87
2023/10/13 06:28:40;;;;;;;21.13;8.65;;;;;;;;;;4988594;28;20050;-87
2023/10/13 06:28:58;;;;;;;71.97;40.85;;;;;;;;;;4994577;28;20054;-87
2023/10/13 06:31:25;;;;;;;22.02;11.05;;;;;;;;;;4976811;28;20116;-85
2023/10/13 06:33:55;;;;;;;19.52;11.50;;;;;;;;;;4993827;28;20528;-86
2023/10/13 06:36:23;;;;;;;19.23;10.88;;;;;;;;;;4975070;28;20047;-87
2023/10/13 06:39:25;;;;;;;15.57;9.48;;;;;;;;;;4993842;28;20468;-86
2023/10/13 06:41:43;;;;;;;15.87;9.03;;;;;;;;;;4986060;28;20042;-85
2023/10/13 06:44:15;;;;;;;12.85;7.90;;;;;;;;;;4976888;28;20046;-84
2023/10/13 06:46:43;;;;;;;11.38;6.72;;;;;;;;;;4992577;28;20084;-86
2023/10/13 06:49:13;;;;;;;10.10;6.45;;;;;;;;;;4976718;28;20507;-83
2023/10/13 06:51:40;;;;;;;15.35;6.60;;;;;;;;;;4969250;28;20077;-85
2023/10/13 06:54:19;;;;;;;10.20;6.03;;;;;;;;;;4976576;28;20113;-86
2023/10/13 06:56:47;;;;;;;9.25;6.47;;;;;;;;;;4969934;28;20081;-86
2023/10/13 06:59:14;;;;;;;14.10;6.20;;;;;;;;;;4976611;28;20515;-86
2023/10/13 07:01:42;;;;;;;9.30;6.05;;;;;;;;;;4977534;28;20054;-86
2023/10/13 07:04:13;;;;;;;14.57;6.43;;;;;;;;;;4976237;28;20519;-85
2023/10/13 07:06:48;;;;;;;12.32;6.63;;;;;;;;;;4987142;28;20053;-87
2023/10/13 07:12:22;;;;;;;10.43;6.47;;;;;;;;;;4994253;28;20046;-87
2023/10/13 07:14:53;;;;;;;9.52;5.72;;;;;;;;;;4994403;28;20112;-82
2023/10/13 07:17:23;;;;;;;16.42;6.60;;;;;;;;;;4992546;28;20050;-86
2023/10/13 07:19:53;;;;;;;11.75;6.43;;;;;;;;;;4993651;28;20108;-82
2023/10/13 07:22:21;;;;;;;12.80;6.78;;;;;;;;;;4993469;28;20054;-84
2023/10/13 07:24:49;;;;;;;17.88;6.68;;;;;;;;;;4993558;28;20170;-81
2023/10/13 07:27:22;;;;;;;13.82;6.00;;;;;;;;;;4993363;28;20408;-84
2023/10/13 07:30:06;;;;;;;11.60;5.82;;;;;;;;;;4990167;28;20051;-85
2023/10/13 07:32:34;;;;;;;8.50;5.50;;;;;;;;;;5006066;28;20079;-84
2023/10/13 07:35:06;;;;;;;11.00;5.65;;;;;;;;;;4988986;28;20058;-84
2023/10/13 07:37:34;;;;;;;14.10;5.32;;;;;;;;;;4993685;28;20443;-87
2023/10/13 07:40:09;;;;;;;12.02;6.30;;;;;;;;;;4996510;28;20069;-85
2023/10/13 07:42:39;;;;;;;9.98;5.53;;;;;;;;;;4993769;28;20055;-84
2023/10/13 07:45:08;;;;;;;8.48;5.28;;;;;;;;;;4992999;28;20050;-85
2023/10/13 07:47:35;;;;;;;12.48;5.70;;;;;;;;;;4993193;28;20093;-86
2023/10/13 07:50:06;;;;;;;10.80;6.03;;;;;;;;;;4994407;28;20074;-85
2023/10/13 07:52:36;;;;;;;9.85;5.70;;;;;;;;;;4993929;28;20080;-86
2023/10/13 07:55:21;;;;;;;9.32;5.35;;;;;;;;;;4996784;28;20488;-84
2023/10/13 07:57:55;;;;;;;12.75;5.75;;;;;;;;;;4992388;28;20088;-85
2023/10/13 08:04:04;;;;;;;11.87;5.87;;;;;;;;;;4999656;28;20061;-87
2023/10/13 08:06:06;;;;;;;11.48;5.57;;;;;;;;;;4990051;28;20301;-83
2023/10/13 08:08:40;;;;;;;14.15;5.45;;;;;;;;;;5000004;28;20110;-87
2023/10/13 08:11:24;;;;;;;13.18;5.80;;;;;;;;;;4997905;28;20416;-82
2023/10/13 08:13:59;;;;;;;12.70;6.78;;;;;;;;;;5000478;28;20121;-87
2023/10/13 08:19:17;;;;;;;15.98;5.55;;;;;;;;;;5002874;28;20050;-87
2023/10/13 08:22:23;;;;;;;11.05;4.95;;;;;;;;;;4997409;28;20051;-84
2023/10/13 08:33:16;;;;;;;11.00;5.20;;;;;;;;;;4994112;28;20120;-85
2023/10/13 08:36:30;;;;;;;12.23;4.93;;;;;;;;;;4994695;28;20046;-85
2023/10/13 08:38:50;;;;;;;9.70;4.80;;;;;;;;;;4976502;28;20058;-84
2023/10/13 08:43:51;;;;;;;11.38;5.68;;;;;;;;;;5001269;28;20046;-85
2023/10/13 08:46:31;;;;;;;14.80;5.07;;;;;;;;;;5002556;28;20392;-85
2023/10/13 08:49:15;;;;;;;9.45;4.95;;;;;;;;;;5001494;28;20046;-85
2023/10/13 08:51:49;;;;;;;15.57;5.55;;;;;;;;;;4999605;28;20078;-85
2023/10/13 08:57:32;;;;;;;10.65;5.18;;;;;;;;;;4987573;28;20050;-83
2023/10/13 09:00:27;;;;;;;9.57;4.45;;;;;;;;;;5004880;28;20056;-86
2023/10/13 09:02:59;;;;;;;13.48;4.85;;;;;;;;;;5013208;28;20047;-84
2023/10/13 09:06:00;;;;;;;13.23;4.70;;;;;;;;;;5005482;28;20541;-84
2023/10/13 09:08:35;;;;;;;13.10;5.00;;;;;;;;;;4994689;28;20444;-83
2023/10/13 09:11:13;;;;;;;14.98;5.30;;;;;;;;;;4995557;28;20061;-84
2023/10/13 09:13:43;;;;;;;10.15;5.03;;;;;;;;;;4994597;28;20046;-85
2023/10/13 09:16:16;;;;;;;20.70;5.22;;;;;;;;;;4995020;28;20508;-80
2023/10/13 09:18:47;;;;;;;11.45;5.13;;;;;;;;;;4995955;28;20046;-83
2023/10/13 09:24:21;;;;;;;9.30;4.78;;;;;;;;;;4962662;28;20058;-84
2023/10/13 09:26:53;;;;;;;8.25;4.10;;;;;;;;;;4994488;28;20097;-84
2023/10/13 09:29:21;;;;;;;13.82;4.75;;;;;;;;;;4994208;28;20133;-85
2023/10/13 09:32:00;;;;;;;8.63;4.60;;;;;;;;;;4994325;28;20100;-84
2023/10/13 09:34:33;;;;;;;14.55;4.70;;;;;;;;;;4994422;28;20046;-85
2023/10/13 09:37:03;;;;;;;8.93;4.25;;;;;;;;;;4995848;28;20500;-80
2023/10/13 09:39:44;;;;;;;10.13;4.63;;;;;;;;;;4994889;28;20058;-78
2023/10/13 09:42:13;;;;;;;13.25;4.25;;;;;;;;;;4995211;28;20058;-83
2023/10/13 09:44:51;;;;;;;12.98;4.18;;;;;;;;;;4994283;28;20050;-83
2023/10/13 09:47:29;;;;;;;11.90;4.57;;;;;;;;;;4994360;28;20046;-80
2023/10/13 09:50:04;;;;;;;13.32;4.50;;;;;;;;;;4994655;28;20051;-84
2023/10/13 09:52:33;;;;;;;20.67;3.90;;;;;;;;;;4994796;28;20054;-83
2023/10/13 09:55:08;;;;;;;8.32;4.15;;;;;;;;;;4995246;28;20120;-82
2023/10/13 09:57:42;;;;;;;10.40;4.25;;;;;;;;;;4994032;28;20057;-84
2023/10/13 10:00:26;;;;;;;12.63;4.72;;;;;;;;;;4993814;28;20112;-83
2023/10/13 10:03:05;;;;;;;8.05;4.25;;;;;;;;;;4976899;28;20046;-86
2023/10/13 10:05:34;;;;;;;13.05;4.45;;;;;;;;;;5006559;28;20125;-85
2023/10/13 10:08:02;;;;;;;11.48;4.47;;;;;;;;;;5007235;28;20484;-83
2023/10/13 10:10:48;;;;;;;11.52;4.57;;;;;;;;;;5011009;28;20046;-82
2023/10/13 10:13:41;;;;;;;12.13;4.32;;;;;;;;;;4995180;28;20097;-82
2023/10/13 10:16:19;;;;;;;11.68;4.05;;;;;;;;;;4985389;28;20105;-85
2023/10/13 10:18:47;;;;;;;12.80;4.45;;;;;;;;;;4987264;28;20050;-84
2023/10/13 10:21:16;;;;;;;9.15;4.18;;;;;;;;;;4993566;28;20556;-84
2023/10/13 10:23:53;;;;;;;10.15;4.07;;;;;;;;;;4994140;28;20054;-85
2023/10/13 10:26:21;;;;;;;9.38;3.70;;;;;;;;;;4993695;28;20068;-86
2023/10/13 10:28:48;;;;;;;18.98;4.55;;;;;;;;;;4993449;28;20046;-86
2023/10/13 10:31:19;;;;;;;10.57;4.28;;;;;;;;;;4994449;28;20043;-80
2023/10/13 10:33:50;;;;;;;9.23;4.75;;;;;;;;;;4994563;28;20452;-83
2023/10/13 10:36:29;;;;;;;8.13;3.80;;;;;;;;;;4991922;28;20488;-85
2023/10/13 10:39:00;;;;;;;10.45;4.40;;;;;;;;;;4990953;28;20133;-85
2023/10/13 10:41:45;;;;;;;11.57;4.05;;;;;;;;;;5008050;28;20116;-81
2023/10/13 10:44:16;;;;;;;9.10;3.80;;;;;;;;;;4995313;28;20051;-84
2023/10/13 10:47:01;;;;;;;13.75;4.28;;;;;;;;;;4996016;28;20116;-83
2023/10/13 10:49:29;;;;;;;9.20;4.53;;;;;;;;;;4997297;28;20055;-80
2023/10/13 10:52:01;;;;;;;17.30;4.53;;;;;;;;;;4995832;28;20062;-85
2023/10/13 10:54:32;;;;;;;13.85;4.00;;;;;;;;;;4995283;28;20077;-87
2023/10/13 10:57:13;;;;;;;10.32;3.83;;;;;;;;;;4994357;28;20511;-81
2023/10/13 10:59:40;;;;;;;8.68;4.05;;;;;;;;;;4994709;28;20057;-85
2023/10/13 11:02:08;;;;;;;10.00;3.72;;;;;;;;;;4994805;28;20058;-85
2023/10/13 11:04:51;;;;;;;11.32;3.45;;;;;;;;;;4987693;28;20058;-86
2023/10/13 11:07:23;;;;;;;9.05;3.67;;;;;;;;;;4994338;28;20050;-85
2023/10/13 11:10:06;;;;;;;8.45;4.30;;;;;;;;;;4979644;28;20047;-85
2023/10/13 11:12:34;;;;;;;10.23;4.00;;;;;;;;;;4978035;28;20471;-87
2023/10/13 11:15:04;;;;;;;11.43;3.95;;;;;;;;;;4978981;28;20412;-85
2023/10/13 11:20:33;;;;;;;10.02;3.85;;;;;;;;;;4994990;28;20415;-87
2023/10/13 11:23:04;;;;;;;13.75;4.07;;;;;;;;;;4979336;28;20461;-85
2023/10/13 11:25:36;;;;;;;8.88;4.55;;;;;;;;;;4996988;28;20411;-81
2023/10/13 11:28:20;;;;;;;10.45;3.67;;;;;;;;;;4980605;28;20089;-83
2023/10/13 11:30:51;;;;;;;10.85;3.72;;;;;;;;;;4984096;28;20050;-85
2023/10/13 11:33:42;;;;;;;10.50;3.97;;;;;;;;;;4984253;28;20101;-83
2023/10/13 11:36:15;;;;;;;9.35;3.33;;;;;;;;;;5000086;28;20086;-80
2023/10/13 11:38:49;;;;;;;8.75;3.50;;;;;;;;;;4977194;28;20105;-84
2023/10/13 11:41:20;;;;;;;10.40;3.83;;;;;;;;;;5001212;28;20073;-81
2023/10/13 11:51:46;;;;;;;7.90;3.78;;;;;;;;;;5012708;28;20050;-85
2023/10/13 11:54:13;;;;;;;8.80;4.07;;;;;;;;;;4992706;28;20547;-83
2023/10/13 11:56:40;;;;;;;7.10;3.97;;;;;;;;;;4997338;28;20097;-84
2023/10/13 11:59:15;;;;;;;8.30;3.78;;;;;;;;;;4980164;28;20086;-83
2023/10/13 12:04:51;;;;;;;15.55;4.20;;;;;;;;;;4996971;28;20062;-84
2023/10/13 12:07:21;;;;;;;11.43;4.22;;;;;;;;;;4978852;28;20117;-81
2023/10/13 12:12:20;;;;;;;8.65;3.70;;;;;;;;;;4997012;28;20046;-80
2023/10/13 12:14:55;;;;;;;10.93;4.57;;;;;;;;;;4996742;28;20109;-84
2023/10/13 12:17:28;;;;;;;10.05;4.05;;;;;;;;;;4971762;28;20510;-82
2023/10/13 12:19:56;;;;;;;6.97;3.72;;;;;;;;;;4979648;28;20047;-84
2023/10/13 12:22:28;;;;;;;15.50;4.40;;;;;;;;;;4980076;28;20051;-85
2023/10/13 12:24:56;;;;;;;13.48;4.40;;;;;;;;;;4979077;28;20056;-87
2023/10/13 12:27:26;;;;;;;11.65;4.60;;;;;;;;;;4978096;28;20054;-88
2023/10/13 12:29:56;;;;;;;10.65;4.05;;;;;;;;;;4996270;28;20055;-85
2023/10/13 12:32:25;;;;;;;8.00;3.75;;;;;;;;;;4979212;28;20408;-85
2023/10/13 12:54:04;;;;;;;7.97;3.58;;;;;;;;;;4995645;28;20492;-86
2023/10/13 12:56:32;;;;;;;11.93;3.72;;;;;;;;;;4978823;28;20050;-85
2023/10/13 12:58:59;;;;;;;7.97;3.67;;;;;;;;;;4978726;28;20096;-88
2023/10/13 13:01:32;;;;;;;12.88;3.95;;;;;;;;;;4976939;28;20501;-84
2023/10/13 13:04:03;;;;;;;7.72;3.55;;;;;;;;;;4978360;28;20058;-84
2023/10/13 13:06:31;;;;;;;8.27;3.80;;;;;;;;;;4978196;28;20081;-86
2023/10/13 13:08:59;;;;;;;5.80;3.28;;;;;;;;;;4989579;28;20113;-86
2023/10/13 13:11:30;;;;;;;13.35;3.90;;;;;;;;;;4994184;28;20061;-87
2023/10/13 13:13:57;;;;;;;17.80;4.63;;;;;;;;;;4991055;28;20074;-86
2023/10/13 13:16:30;;;;;;;11.40;3.80;;;;;;;;;;4993313;28;20050;-84
2023/10/13 13:18:58;;;;;;;5.43;3.85;;;;;;;;;;4994594;28;20389;-87
2023/10/13 13:21:25;;;;;;;9.98;3.70;;;;;;;;;;4994218;28;20116;-86
2023/10/13 13:23:55;;;;;;;7.22;3.65;;;;;;;;;;4994263;28;20054;-86
2023/10/13 13:26:23;;;;;;;5.15;3.58;;;;;;;;;;4995675;28;20101;-85
2023/10/13 13:28:50;;;;;;;5.53;4.05;;;;;;;;;;4995060;28;20105;-84
2023/10/13 13:31:29;;;;;;;12.70;3.88;;;;;;;;;;4991349;28;20049;-86
2023/10/13 13:33:56;;;;;;;12.05;3.97;;;;;;;;;;4994325;28;20046;-85
2023/10/13 13:36:24;;;;;;;7.53;3.58;;;;;;;;;;4994175;28;20109;-86
2023/10/13 13:38:54;;;;;;;5.65;3.40;;;;;;;;;;4993625;28;20073;-87
2023/10/13 13:41:21;;;;;;;6.43;3.30;;;;;;;;;;4991600;28;20143;-86
2023/10/13 13:46:18;;;;;;;8.20;3.55;;;;;;;;;;4994987;28;20133;-88
2023/10/13 13:48:48;;;;;;;11.13;3.67;;;;;;;;;;4994702;28;20109;-85
2023/10/13 13:51:19;;;;;;;6.45;3.70;;;;;;;;;;4994414;28;20046;-84
2023/10/13 13:53:47;;;;;;;6.50;3.60;;;;;;;;;;4995034;28;20404;-85
2023/10/13 13:56:16;;;;;;;7.93;3.40;;;;;;;;;;4991350;28;20427;-85
2023/10/13 13:58:48;;;;;;;10.10;3.47;;;;;;;;;;4993879;28;20050;-87
2023/10/13 14:01:17;;;;;;;5.65;3.45;;;;;;;;;;4990385;28;20449;-86
2023/10/13 14:03:46;;;;;;;9.75;3.55;;;;;;;;;;4994935;28;20074;-83
2023/10/13 14:06:24;;;;;;;8.55;3.90;;;;;;;;;;4993235;28;20051;-87
2023/10/13 14:08:54;;;;;;;8.43;3.67;;;;;;;;;;4996220;28;20050;-86
2023/10/13 14:14:28;;;;;;;7.07;3.25;;;;;;;;;;4995537;28;20068;-84
2023/10/13 14:17:03;;;;;;;9.52;3.30;;;;;;;;;;4978428;28;20046;-86
2023/10/13 14:19:32;;;;;;;8.45;3.70;;;;;;;;;;4976833;28;20061;-87
2023/10/13 14:22:06;;;;;;;7.85;3.50;;;;;;;;;;4977564;28;20054;-85
2023/10/13 14:24:43;;;;;;;9.98;3.38;;;;;;;;;;4976938;28;20054;-86
2023/10/13 14:27:19;;;;;;;8.20;3.40;;;;;;;;;;4979602;28;20472;-86
2023/10/13 14:29:47;;;;;;;8.52;3.45;;;;;;;;;;4978409;28;20423;-86
2023/10/13 14:32:15;;;;;;;12.35;3.38;;;;;;;;;;4978354;28;20042;-84
2023/10/13 14:34:43;;;;;;;9.68;3.90;;;;;;;;;;4986888;28;20069;-87
2023/10/13 14:37:20;;;;;;;9.45;3.53;;;;;;;;;;4999173;28;20050;-87
2023/10/13 14:39:56;;;;;;;11.57;3.78;;;;;;;;;;4974087;28;20067;-85
2023/10/13 14:42:28;;;;;;;10.50;3.63;;;;;;;;;;4983309;28;20047;-86
2023/10/13 14:44:55;;;;;;;5.95;3.67;;;;;;;;;;4976794;28;20054;-87
2023/10/13 14:47:26;;;;;;;6.93;3.80;;;;;;;;;;4976268;28;20046;-86
2023/10/13 14:49:54;;;;;;;10.13;3.75;;;;;;;;;;4973314;28;20141;-86
2023/10/13 14:52:24;;;;;;;8.90;3.88;;;;;;;;;;4991566;28;20120;-86
2023/10/13 14:54:56;;;;;;;4.22;3.25;;;;;;;;;;4993915;28;20459;-86
2023/10/13 14:57:27;;;;;;;11.88;3.70;;;;;;;;;;4993650;28;20085;-87
2023/10/13 14:59:54;;;;;;;8.88;4.32;;;;;;;;;;4976928;28;20050;-87
2023/10/13 15:02:22;;;;;;;7.45;3.40;;;;;;;;;;4970049;28;20056;-87
2023/10/13 15:04:50;;;;;;;8.38;3.45;;;;;;;;;;4980637;28;20057;-85
2023/10/13 15:07:19;;;;;;;10.32;3.83;;;;;;;;;;4979997;28;20054;-86
2023/10/13 15:09:46;;;;;;;8.48;3.15;;;;;;;;;;4980811;28;20133;-84
2023/10/13 15:12:14;;;;;;;6.72;3.45;;;;;;;;;;4999300;28;20562;-85
2023/10/13 15:14:48;;;;;;;9.60;3.10;;;;;;;;;;4982245;28;20078;-86
2023/10/13 15:17:16;;;;;;;7.97;3.25;;;;;;;;;;4980340;28;20065;-87
2023/10/13 15:19:43;;;;;;;9.85;3.35;;;;;;;;;;4980675;28;20591;-86
2023/10/13 15:22:21;;;;;;;7.70;3.33;;;;;;;;;;4998008;28;20108;-86
2023/10/13 15:25:08;;;;;;;8.48;3.80;;;;;;;;;;4980836;28;20080;-86
2023/10/13 15:27:41;;;;;;;8.60;4.22;;;;;;;;;;4997537;28;20104;-85
2023/10/13 15:30:19;;;;;;;7.25;3.83;;;;;;;;;;4979765;28;20563;-86
2023/10/13 15:32:48;;;;;;;7.05;3.60;;;;;;;;;;4973156;28;20488;-85
2023/10/13 15:35:17;;;;;;;7.03;3.83;;;;;;;;;;4980203;28;20054;-86
2023/10/13 15:37:47;;;;;;;9.57;4.00;;;;;;;;;;4997821;28;20056;-86
2023/10/13 15:40:35;;;;;;;5.30;3.42;;;;;;;;;;4980299;28;20061;-86
2023/10/13 15:43:05;;;;;;;8.50;3.75;;;;;;;;;;4980293;28;20137;-86
2023/10/13 15:45:38;;;;;;;9.85;3.33;;;;;;;;;;4980959;28;20502;-86
2023/10/13 15:48:06;;;;;;;10.98;4.10;;;;;;;;;;4975872;28;20058;-87
2023/10/13 15:50:40;;;;;;;5.38;3.42;;;;;;;;;;4987975;28;20050;-85
2023/10/13 15:53:12;;;;;;;6.30;3.40;;;;;;;;;;4972027;28;20113;-86
2023/10/13 15:55:40;;;;;;;10.85;4.00;;;;;;;;;;4971612;28;20050;-85
2023/10/13 15:58:07;;;;;;;8.80;3.20;;;;;;;;;;4979670;28;20440;-86
2023/10/13 16:00:35;;;;;;;12.38;3.50;;;;;;;;;;4980349;28;20056;-86
2023/10/13 16:03:10;;;;;;;9.20;3.45;;;;;;;;;;4976712;28;20046;-87
2023/10/13 16:05:40;;;;;;;7.25;3.30;;;;;;;;;;4988465;28;20527;-87
2023/10/13 16:08:11;;;;;;;8.20;3.55;;;;;;;;;;4983234;28;20073;-86
2023/10/13 16:17:37;;;;;;;3.80;3.40;;;;;;;;;;5186966;23;20046;-87
2023/10/13 16:20:15;;;;;;;8.10;3.58;;;;;;;;;;4986915;28;20392;-88
2023/10/13 16:22:46;;;;;;;6.75;3.03;;;;;;;;;;5003828;28;20050;-89
2023/10/13 16:25:15;;;;;;;7.10;3.58;;;;;;;;;;4986789;28;20053;-86
2023/10/13 16:27:46;;;;;;;8.48;2.90;;;;;;;;;;4991117;28;20054;-89
2023/10/13 16:30:19;;;;;;;8.20;3.20;;;;;;;;;;4990645;28;20133;-91
2023/10/13 16:32:47;;;;;;;7.88;3.42;;;;;;;;;;4987051;28;20060;-89
2023/10/13 16:35:17;;;;;;;5.80;3.20;;;;;;;;;;4995021;28;20383;-89
2023/10/13 16:37:46;;;;;;;6.55;3.50;;;;;;;;;;4987024;28;20061;-88
2023/10/13 16:40:20;;;;;;;9.05;3.15;;;;;;;;;;4986919;28;20047;-88
2023/10/13 16:42:48;;;;;;;8.88;3.60;;;;;;;;;;4990426;28;20050;-89
2023/10/13 16:45:19;;;;;;;5.93;3.22;;;;;;;;;;4998296;28;20045;-88
2023/10/13 16:47:50;;;;;;;6.22;3.88;;;;;;;;;;4990263;28;20053;-88
2023/10/13 16:50:18;;;;;;;11.68;4.00;;;;;;;;;;4989542;28;20058;-89
2023/10/13 16:52:48;;;;;;;5.97;3.50;;;;;;;;;;4986704;28;20062;-89
2023/10/13 16:55:19;;;;;;;10.23;3.55;;;;;;;;;;4987210;28;20057;-88
2023/10/13 16:57:50;;;;;;;7.63;3.35;;;;;;;;;;4990316;28;20052;-89
2023/10/13 17:00:25;;;;;;;11.55;3.90;;;;;;;;;;4987479;28;20231;-89
2023/10/13 17:02:53;;;;;;;9.27;3.45;;;;;;;;;;4989700;28;20046;-89
2023/10/13 17:05:22;;;;;;;8.27;3.42;;;;;;;;;;4989085;28;20109;-90
2023/10/13 17:07:51;;;;;;;5.45;3.53;;;;;;;;;;4986508;28;20082;-89
2023/10/13 17:10:19;;;;;;;48.65;7.50;;;;;;;;;;5012795;28;20464;-89
2023/10/13 17:12:46;;;;;;;28.13;5.47;;;;;;;;;;4989636;28;20045;-89
2023/10/13 17:15:19;;;;;;;21.63;5.43;;;;;;;;;;4997494;28;20082;-90
2023/10/13 17:17:47;;;;;;;16.02;4.57;;;;;;;;;;4986385;28;20054;-89
2023/10/13 17:20:17;;;;;;;15.20;4.03;;;;;;;;;;4986650;28;20125;-89
2023/10/13 17:22:46;;;;;;;8.07;3.50;;;;;;;;;;4989622;28;20057;-90
2023/10/13 17:25:13;;;;;;;82.03;9.95;;;;;;;;;;4989476;28;20076;-89
2023/10/13 17:27:40;;;;;;;23.08;5.18;;;;;;;;;;4985973;28;20078;-89
2023/10/13 17:30:09;;;;;;;18.08;5.10;;;;;;;;;;5003043;28;20081;-89
2023/10/13 17:32:38;;;;;;;29.13;5.47;;;;;;;;;;4997361;28;20045;-89
2023/10/13 17:35:06;;;;;;;49.10;6.32;;;;;;;;;;5006583;28;20491;-89
2023/10/13 17:37:33;;;;;;;26.67;5.35;;;;;;;;;;5003712;28;20120;-88
2023/10/13 17:40:01;;;;;;;18.20;4.95;;;;;;;;;;4991487;28;20046;-89
2023/10/13 17:42:28;;;;;;;19.30;4.88;;;;;;;;;;4986871;28;20050;-89
2023/10/13 17:44:56;;;;;;;18.23;4.53;;;;;;;;;;4986024;28;20070;-89
2023/10/13 17:47:26;;;;;;;12.10;4.47;;;;;;;;;;4987489;28;20376;-90
2023/10/13 17:49:53;;;;;;;13.18;4.72;;;;;;;;;;5006616;28;20046;-88
2023/10/13 17:52:21;;;;;;;23.88;5.75;;;;;;;;;;4996182;28;20473;-89
2023/10/13 17:54:48;;;;;;;17.40;4.80;;;;;;;;;;4985849;28;20462;-90
2023/10/13 17:57:16;;;;;;;14.85;4.63;;;;;;;;;;4991257;28;20054;-90
2023/10/13 17:59:47;;;;;;;15.75;4.63;;;;;;;;;;4989371;28;20108;-90
2023/10/13 18:02:14;;;;;;;15.07;3.83;;;;;;;;;;4988796;28;20050;-89
2023/10/13 18:04:41;;;;;;;9.00;4.18;;;;;;;;;;4985793;28;20084;-89
2023/10/13 18:07:12;;;;;;;11.82;4.82;;;;;;;;;;4985437;28;20046;-91
2023/10/13 18:09:40;;;;;;;12.15;4.63;;;;;;;;;;4988724;28;20414;-90
2023/10/13 18:12:08;;;;;;;8.77;4.25;;;;;;;;;;4989133;28;20064;-90
2023/10/13 18:14:39;;;;;;;17.58;4.68;;;;;;;;;;4994292;28;20062;-90
2023/10/13 18:17:08;;;;;;;9.75;4.25;;;;;;;;;;4985958;28;20046;-90